TimeEDT,TemperatureF,Dew PointF,Humidity,Sea Level PressureIn,VisibilityMPH,Wind Direction,Wind SpeedMPH,Gust SpeedMPH,PrecipitationIn,Events,Conditions,WindDirDegrees,DateUTC
12:54 AM,43.0,32.0,65,30.18,10.0,WSW,3.5,-,N/A,,Clear,250,2013-10-28 04:54:00
1:54 AM,39.9,32.0,73,30.18,10.0,Calm,Calm,-,N/A,,Clear,0,2013-10-28 05:54:00
2:54 AM,37.9,32.0,79,30.18,10.0,Calm,Calm,-,N/A,,Clear,0,2013-10-28 06:54:00
3:54 AM,36.0,30.9,82,30.17,10.0,Calm,Calm,-,N/A,,Clear,0,2013-10-28 07:54:00
4:54 AM,36.0,32.0,86,30.19,10.0,Calm,Calm,-,N/A,,Clear,0,2013-10-28 08:54:00
5:54 AM,36.0,32.0,86,30.21,10.0,SW,3.5,-,N/A,,Clear,220,2013-10-28 09:54:00
6:54 AM,36.0,32.0,86,30.23,10.0,Calm,Calm,-,N/A,,Clear,0,2013-10-28 10:54:00
7:54 AM,37.9,33.1,83,30.25,10.0,Calm,Calm,-,N/A,,Clear,0,2013-10-28 11:54:00
8:54 AM,44.1,37.0,76,30.27,10.0,Calm,Calm,-,0.01,,Clear,0,2013-10-28 12:54:00
9:54 AM,51.1,35.1,54,30.27,10.0,WSW,3.5,-,N/A,,Clear,240,2013-10-28 13:54:00
10:54 AM,55.9,34.0,44,30.28,10.0,West,5.8,-,N/A,,Clear,280,2013-10-28 14:54:00
11:54 AM,57.9,35.1,42,30.27,10.0,WSW,9.2,-,N/A,,Clear,250,2013-10-28 15:54:00
12:54 PM,62.1,37.0,39,30.25,10.0,WSW,9.2,-,N/A,,Clear,240,2013-10-28 16:54:00
1:14 PM,62.6,37.4,39,30.24,1.0,WSW,5.8,-,N/A,,Haze,250,2013-10-28 17:14:00
1:29 PM,62.6,37.4,39,30.23,10.0,Variable,6.9,-,N/A,,Clear,0,2013-10-28 17:29:00
1:54 PM,63.0,37.0,38,30.22,10.0,West,8.1,-,N/A,,Clear,280,2013-10-28 17:54:00
2:54 PM,63.0,37.0,38,30.21,10.0,WSW,6.9,-,N/A,,Clear,250,2013-10-28 18:54:00
3:54 PM,63.0,36.0,37,30.21,10.0,West,5.8,-,N/A,,Clear,260,2013-10-28 19:54:00
4:54 PM,62.1,37.0,39,30.22,10.0,WNW,4.6,-,N/A,,Clear,290,2013-10-28 20:54:00
5:54 PM,60.1,36.0,41,30.24,10.0,NW,4.6,-,N/A,,Clear,310,2013-10-28 21:54:00
6:54 PM,57.0,36.0,45,30.26,10.0,NNW,4.6,-,N/A,,Clear,340,2013-10-28 22:54:00
7:54 PM,54.0,37.0,53,30.28,10.0,Calm,Calm,-,N/A,,Clear,0,2013-10-28 23:54:00
8:54 PM,50.0,37.0,61,30.29,10.0,Calm,Calm,-,N/A,,Clear,0,2013-10-29 00:54:00
9:54 PM,48.0,37.0,66,30.30,10.0,Calm,Calm,-,N/A,,Clear,0,2013-10-29 01:54:00
10:54 PM,44.1,37.0,76,30.31,10.0,NNE,4.6,-,N/A,,Clear,30,2013-10-29 02:54:00
11:54 PM,46.9,36.0,66,30.32,10.0,NE,4.6,-,N/A,,Clear,50,2013-10-29 03:54:00